Date,TemperatureHighF,TemperatureAvgF,TemperatureLowF,DewpointHighF,DewpointAvgF,DewpointLowF,HumidityHigh,HumidityAvg,HumidityLow,PressureMaxIn,PressureMinIn,WindSpeedMaxMPH,WindSpeedAvgMPH,GustSpeedMaxMPH,PrecipitationSumIn
2013-9-1,83,75,60,53,51,48,77,44,32,0.00,40.00,15,10,26,0.00
2013-9-2,76,72,66,55,53,51,66,53,45,0.00,40.00,15,12,26,0.02
2013-9-3,78,73,62,51,49,48,61,44,38,0.00,40.00,16,10,24,0.00
2013-9-4,74,71,69,54,52,49,59,53,41,0.00,40.00,10,9,17,0.00
2013-9-5,69,68,66,56,54,54,66,64,62,0.00,40.00,5,4,11,0.00
2013-9-6,64,62,60,56,55,54,84,78,71,0.00,40.00,14,12,23,0.00
2013-9-7,80,68,58,59,57,56,92,69,49,0.00,40.00,7,4,16,0.00
2013-9-8,78,73,64,58,56,54,76,57,44,0.00,40.00,7,5,19,0.00
2013-9-9,86,80,71,57,55,53,61,43,34,0.00,40.00,5,4,16,0.00
2013-9-10,78,71,67,59,58,56,68,62,53,0.00,40.00,4,3,10,0.00
2013-9-12,76,68,64,59,58,57,78,70,55,0.00,40.00,5,2,11,0.00
2013-9-13,64,44,61,59,12,-100,92,61,81,0.00,40.00,8,4,6,0.00
2013-9-14,66,66,66,62,62,62,86,86,86,0.00,40.00,3,3,6,0.00
2013-9-16,65,61,58,57,57,56,97,88,73,0.00,40.00,10,5,16,0.31
2013-9-17,67,61,57,49,47,46,72,61,51,0.00,40.00,10,8,23,0.11
2013-9-19,79,69,56,50,47,46,71,50,33,0.00,40.00,9,6,15,0.00
2013-9-20,68,62,56,53,51,49,82,68,57,0.00,40.00,18,8,36,0.01
2013-9-21,62,60,59,51,51,50,75,71,66,0.00,40.00,15,11,23,0.03
2013-9-23,53,53,53,52,52,52,96,96,95,0.00,40.00,12,10,20,0.00
2013-9-24,55,51,49,52,49,47,96,93,90,0.00,40.00,10,8,22,0.14
2013-9-25,60,53,46,46,44,41,85,72,56,0.00,40.00,8,5,19,0.01
2013-9-26,61,57,50,48,47,43,77,69,62,0.00,40.00,8,5,17,0.00
2013-9-30,50,49,48,47,46,46,97,92,86,0.00,40.00,17,15,32,0.05